Time;durP1;ratioP1;P1;durP2;ratioP2;P2;SDS_P1;SDS_P2;PMS_P1;PMS_P2;Temp;Humidity;BMP_temperature;BMP_pressure;BME280_temperature;BME280_humidity;BME280_pressure;Samples;Min_cycle;Max_cycle;Signal;HPM_P1;HPM_P2
2023/10/31 00:02:06;;;;;;;;;;;;;;;21.89;53.06;100933.53;7399269;19;1475;-42
2023/10/31 00:04:34;;;;;;;;;;;;;;;21.89;52.91;100922.75;7398419;19;2184;-42
2023/10/31 00:07:02;;;;;;;;;;;;;;;21.87;52.99;100922.06;7398188;19;1756;-42
2023/10/31 00:09:31;;;;;;;;;;;;;;;21.89;52.86;100922.75;7398053;19;1483;-42
2023/10/31 00:12:02;;;;;;;;;;;;;;;21.85;53.10;100923.03;7398589;19;1735;-42
2023/10/31 00:14:30;;;;;;;;;;;;;;;21.84;53.11;100910.59;7399180;19;1067;-43
2023/10/31 00:16:58;;;;;;;;;;;;;;;21.84;52.94;100910.59;7395719;19;1927;-42
2023/10/31 00:19:27;;;;;;;;;;;;;;;21.84;52.83;100921.38;7398799;19;1705;-42
2023/10/31 00:21:55;;;;;;;;;;;;;;;21.85;53.11;100906.03;7397711;19;1880;-42
2023/10/31 00:24:24;;;;;;;;;;;;;;;21.91;52.96;100893.84;7397243;19;1880;-42
2023/10/31 00:26:52;;;;;;;;;;;;;;;21.90;52.97;100909.13;7394954;19;1866;-42
2023/10/31 00:29:23;;;;;;;;;;;;;;;21.89;53.04;100901.22;7395315;19;1737;-42
2023/10/31 00:31:51;;;;;;;;;;;;;;;21.89;52.81;100893.13;7398373;19;1730;-42
2023/10/31 00:34:19;;;;;;;;;;;;;;;21.87;52.78;100887.91;7396046;19;1811;-42
2023/10/31 00:36:48;;;;;;;;;;;;;;;21.88;52.86;100894.97;7395971;19;1849;-42
2023/10/31 00:39:16;;;;;;;;;;;;;;;21.89;52.93;100890.44;7397007;19;1844;-46
2023/10/31 00:41:46;;;;;;;;;;;;;;;21.87;53.06;100892.44;7397574;19;1868;-42
2023/10/31 00:44:15;;;;;;;;;;;;;;;21.87;53.02;100881.66;7397216;19;1462;-42
2023/10/31 00:46:46;;;;;;;;;;;;;;;21.85;52.73;100879.97;7396343;19;1844;-43
2023/10/31 00:49:14;;;;;;;;;;;;;;;21.82;53.04;100885.63;7396776;19;1774;-48
2023/10/31 00:51:42;;;;;;;;;;;;;;;21.87;52.72;100890.59;7397950;19;1772;-42
2023/10/31 00:54:11;;;;;;;;;;;;;;;21.87;52.92;100884.38;7396902;19;1746;-42
2023/10/31 00:56:39;;;;;;;;;;;;;;;21.84;52.76;100883.66;7398082;19;1682;-43
2023/10/31 00:59:08;;;;;;;;;;;;;;;21.84;52.80;100875.59;7396553;19;1845;-43
2023/10/31 01:01:36;;;;;;;;;;;;;;;21.81;52.78;100883.13;7396548;19;1852;-47
2023/10/31 01:04:07;;;;;;;;;;;;;;;21.80;52.89;100879.56;7393150;19;1845;-42
2023/10/31 01:06:35;;;;;;;;;;;;;;;21.85;52.61;100884.50;7394841;19;1855;-42
2023/10/31 01:09:04;;;;;;;;;;;;;;;21.85;52.92;100879.97;7397294;19;1668;-43
2023/10/31 01:11:32;;;;;;;;;;;;;;;21.81;52.94;100873.19;7396929;19;1018;-42
2023/10/31 01:14:00;;;;;;;;;;;;;;;21.81;52.95;100866.97;7396404;19;1872;-42
2023/10/31 01:16:28;;;;;;;;;;;;;;;21.80;52.85;100860.72;7395777;19;1939;-42
2023/10/31 01:18:57;;;;;;;;;;;;;;;21.80;52.91;100859.88;7396157;19;1456;-42
2023/10/31 01:21:28;;;;;;;;;;;;;;;21.80;52.97;100870.66;7396748;19;1808;-42
2023/10/31 01:23:56;;;;;;;;;;;;;;;21.81;52.64;100875.88;7396271;19;1396;-42
2023/10/31 01:26:24;;;;;;;;;;;;;;;21.76;53.00;100859.31;7394635;19;1865;-43
2023/10/31 01:28:53;;;;;;;;;;;;;;;21.80;52.80;100862.56;7396438;19;1801;-43
2023/10/31 01:31:21;;;;;;;;;;;;;;;21.80;52.79;100859.88;7395949;19;1662;-44
2023/10/31 01:33:49;;;;;;;;;;;;;;;21.80;52.71;100866.09;7396095;19;1800;-43
2023/10/31 01:36:18;;;;;;;;;;;;;;;21.77;52.93;100861.03;7395712;19;1906;-43
2023/10/31 01:38:49;;;;;;;;;;;;;;;21.79;52.58;100853.66;7393826;19;1957;-42
2023/10/31 01:41:17;;;;;;;;;;;;;;;21.80;52.89;100854.50;7394911;19;1380;-42
2023/10/31 01:43:45;;;;;;;;;;;;;;;21.81;52.76;100862.41;7394551;19;1852;-43
2023/10/31 01:46:14;;;;;;;;;;;;;;;21.78;52.65;100864.56;7395043;19;1856;-43
2023/10/31 01:48:42;;;;;;;;;;;;;;;21.75;52.76;100854.97;7395383;19;1776;-42
2023/10/31 01:51:12;;;;;;;;;;;;;;;21.79;52.83;100868.97;7394628;19;1785;-42
2023/10/31 01:53:40;;;;;;;;;;;;;;;21.77;52.85;100871.81;7392024;19;1840;-43
2023/10/31 01:56:11;;;;;;;;;;;;;;;21.77;52.84;100857.50;7394002;19;1904;-42
2023/10/31 01:58:41;;;;;;;;;;;;;;;21.79;52.75;100860.88;7395065;19;1799;-42
2023/10/31 02:01:10;;;;;;;;;;;;;;;21.76;52.73;100858.50;7394875;19;1741;-42
2023/10/31 02:03:38;;;;;;;;;;;;;;;21.76;52.69;100853.09;7393391;19;1765;-42
2023/10/31 02:06:07;;;;;;;;;;;;;;;21.75;52.86;100857.66;7394204;19;1863;-42
2023/10/31 02:08:35;;;;;;;;;;;;;;;21.77;52.84;100842.19;7393989;19;1698;-42
2023/10/31 02:11:05;;;;;;;;;;;;;;;21.76;52.88;100856.63;7395763;19;1043;-42
2023/10/31 02:13:36;;;;;;;;;;;;;;;21.79;52.73;100842.03;7393393;19;1835;-43
2023/10/31 02:16:04;;;;;;;;;;;;;;;21.78;52.80;100851.94;7392857;19;1848;-42
2023/10/31 02:18:33;;;;;;;;;;;;;;;21.74;52.87;100847.88;7393156;19;1762;-42
2023/10/31 02:21:01;;;;;;;;;;;;;;;21.74;52.66;100844.34;7392903;19;1948;-42
2023/10/31 02:23:32;;;;;;;;;;;;;;;21.73;52.61;100843.50;7393129;19;1888;-42
2023/10/31 02:26:00;;;;;;;;;;;;;;;21.74;52.54;100817.41;7393483;19;1845;-42
2023/10/31 02:28:28;;;;;;;;;;;;;;;21.75;52.77;100841.50;7394049;19;1749;-42
2023/10/31 02:30:57;;;;;;;;;;;;;;;21.78;52.83;100846.56;7393086;19;1801;-42
2023/10/31 02:33:25;;;;;;;;;;;;;;;21.76;52.67;100832.41;7393829;19;1816;-42
2023/10/31 02:35:54;;;;;;;;;;;;;;;21.72;52.72;100825.63;7393897;19;1906;-42
2023/10/31 02:38:22;;;;;;;;;;;;;;;21.75;52.67;100841.50;7393467;19;1523;-43
2023/10/31 02:40:53;;;;;;;;;;;;;;;21.71;52.81;100834.72;7393456;19;1420;-43
2023/10/31 02:43:21;;;;;;;;;;;;;;;21.76;52.73;100843.19;7393146;19;1776;-42
2023/10/31 02:45:50;;;;;;;;;;;;;;;21.76;52.50;100837.78;7391923;19;1846;-42
2023/10/31 02:48:20;;;;;;;;;;;;;;;21.74;52.73;100838.94;7392446;19;1820;-42
2023/10/31 02:50:48;;;;;;;;;;;;;;;21.79;52.69;100847.44;7392837;19;1396;-42
2023/10/31 02:53:16;;;;;;;;;;;;;;;21.74;52.61;100829.03;7393611;19;1843;-41
2023/10/31 02:55:45;;;;;;;;;;;;;;;21.77;52.60;100846.75;7391983;19;1770;-42
2023/10/31 02:58:17;;;;;;;;;;;;;;;21.78;52.45;100835.78;7391821;19;1559;-42
2023/10/31 03:00:45;;;;;;;;;;;;;;;21.81;52.64;100842.75;7391952;19;1556;-42
2023/10/31 03:03:13;;;;;;;;;;;;;;;21.76;52.55;100843.19;7392261;19;1637;-43
2023/10/31 03:05:41;;;;;;;;;;;;;;;21.76;52.44;100840.47;7391895;19;1847;-42
2023/10/31 03:08:11;;;;;;;;;;;;;;;21.77;52.48;100839.50;7390930;19;1562;-42
2023/10/31 03:10:40;;;;;;;;;;;;;;;21.74;52.53;100834.41;7392024;19;1540;-42
2023/10/31 03:13:09;;;;;;;;;;;;;;;21.74;52.48;100834.41;7391546;19;1554;-44
2023/10/31 03:15:40;;;;;;;;;;;;;;;21.74;52.42;100831.72;7390581;19;1237;-42
2023/10/31 03:18:08;;;;;;;;;;;;;;;21.74;52.41;100849.72;7389335;19;1464;-42
2023/10/31 03:20:36;;;;;;;;;;;;;;;21.73;52.42;100835.41;7391890;19;1567;-42
2023/10/31 03:23:05;;;;;;;;;;;;;;;21.75;52.52;100836.13;7391569;19;1497;-42
2023/10/31 03:25:33;;;;;;;;;;;;;;;21.74;52.64;100834.41;7390245;19;1490;-43
2023/10/31 03:28:01;;;;;;;;;;;;;;;21.66;52.58;100834.31;7391124;19;1838;-42
2023/10/31 03:30:29;;;;;;;;;;;;;;;21.73;52.42;100843.50;7399051;19;1606;-43
2023/10/31 03:33:01;;;;;;;;;;;;;;;21.68;52.63;100835.00;7400385;19;1489;-42
2023/10/31 03:35:29;;;;;;;;;;;;;;;21.69;52.70;100844.81;7397583;19;1416;-42
2023/10/31 03:37:57;;;;;;;;;;;;;;;21.69;52.62;100831.34;7396945;19;1587;-42
2023/10/31 03:40:26;;;;;;;;;;;;;;;21.72;52.31;100825.63;7396313;19;2367;-42
2023/10/31 03:42:54;;;;;;;;;;;;;;;21.71;52.54;100834.72;7397702;19;1391;-42
2023/10/31 03:45:22;;;;;;;;;;;;;;;21.68;52.63;100823.41;7398040;19;1425;-43
2023/10/31 03:47:51;;;;;;;;;;;;;;;21.67;52.63;100822.56;7396064;19;1849;-42
2023/10/31 03:50:22;;;;;;;;;;;;;;;21.72;52.40;100814.88;7397658;19;1256;-42
2023/10/31 03:52:50;;;;;;;;;;;;;;;21.70;52.44;100822.25;7398347;19;1682;-42
2023/10/31 03:55:18;;;;;;;;;;;;;;;21.79;52.39;100821.34;7397001;19;1642;-42
2023/10/31 03:57:46;;;;;;;;;;;;;;;21.72;52.42;100817.56;7398452;19;1519;-42
2023/10/31 04:00:15;;;;;;;;;;;;;;;21.68;52.37;100804.56;7398158;19;1845;-42
2023/10/31 04:02:44;;;;;;;;;;;;;;;21.70;52.65;100827.63;7398617;19;1491;-42
2023/10/31 04:05:12;;;;;;;;;;;;;;;21.68;52.54;100818.88;7395055;19;1837;-42
2023/10/31 04:07:43;;;;;;;;;;;;;;;21.70;52.31;100814.19;7396516;19;1856;-42
2023/10/31 04:10:11;;;;;;;;;;;;;;;21.69;52.46;100814.34;7398103;19;1812;-42
2023/10/31 04:12:40;;;;;;;;;;;;;;;21.65;52.65;100814.66;7396499;19;1506;-42
2023/10/31 04:15:09;;;;;;;;;;;;;;;21.68;52.60;100818.03;7397841;19;1896;-42
2023/10/31 04:17:38;;;;;;;;;;;;;;;21.70;52.42;100821.41;7396275;19;1852;-42
2023/10/31 04:20:07;;;;;;;;;;;;;;;21.64;52.61;100834.47;7398303;19;1840;-42
2023/10/31 04:22:35;;;;;;;;;;;;;;;21.69;52.45;100820.56;7397072;19;1694;-42
2023/10/31 04:25:06;;;;;;;;;;;;;;;21.72;52.56;100830.19;7398688;19;1659;-43
2023/10/31 04:27:34;;;;;;;;;;;;;;;21.70;52.33;100816.03;7396218;19;1839;-42
2023/10/31 04:30:04;;;;;;;;;;;;;;;21.64;52.61;100820.16;7398183;19;1579;-42
2023/10/31 04:32:32;;;;;;;;;;;;;;;21.62;52.58;100819.47;7396890;19;1853;-43
2023/10/31 04:35:00;;;;;;;;;;;;;;;21.62;52.35;100835.63;7397403;19;1796;-42
2023/10/31 04:37:29;;;;;;;;;;;;;;;21.62;52.45;100824.84;7395703;19;1690;-42
2023/10/31 04:39:57;;;;;;;;;;;;;;;21.64;52.51;100833.63;7395311;19;1431;-42
2023/10/31 04:42:28;;;;;;;;;;;;;;;21.65;52.41;100832.66;7395766;19;1856;-43
2023/10/31 04:44:56;;;;;;;;;;;;;;;21.68;52.29;100829.63;7397652;19;1760;-42
2023/10/31 04:47:24;;;;;;;;;;;;;;;21.67;52.31;100830.66;7396028;19;1856;-42
2023/10/31 04:49:53;;;;;;;;;;;;;;;21.64;52.47;100839.00;7398162;19;1659;-42
2023/10/31 04:52:22;;;;;;;;;;;;;;;21.70;52.46;100849.16;7397286;19;1938;-42
2023/10/31 04:54:50;;;;;;;;;;;;;;;21.63;52.68;100831.94;7396451;19;1636;-43
2023/10/31 04:57:19;;;;;;;;;;;;;;;21.65;52.67;100843.41;7396172;19;1713;-42
2023/10/31 04:59:50;;;;;;;;;;;;;;;21.63;52.55;100848.94;7396575;19;1809;-42
2023/10/31 05:02:18;;;;;;;;;;;;;;;21.64;52.51;100841.69;7397223;19;1777;-42
2023/10/31 05:04:50;;;;;;;;;;;;;;;21.63;52.41;100848.09;7397023;19;1766;-43
2023/10/31 05:07:18;;;;;;;;;;;;;;;21.67;52.44;100854.88;7395655;19;1873;-42
2023/10/31 05:09:47;;;;;;;;;;;;;;;21.64;52.47;100839.00;7394694;19;1825;-42
2023/10/31 05:12:15;;;;;;;;;;;;;;;21.67;52.54;100833.34;7396150;19;1538;-42
2023/10/31 05:14:43;;;;;;;;;;;;;;;21.71;52.18;100828.50;7394024;19;1575;-42
2023/10/31 05:17:14;;;;;;;;;;;;;;;21.74;52.12;100845.19;7397012;19;1297;-42
2023/10/31 05:19:43;;;;;;;;;;;;;;;21.76;52.16;100853.94;7395521;19;1606;-42
2023/10/31 05:22:11;;;;;;;;;;;;;;;21.77;52.14;100838.66;7394875;19;1412;-42
2023/10/31 05:24:40;;;;;;;;;;;;;;;21.87;51.92;100843.97;7394013;19;1468;-42
2023/10/31 05:27:09;;;;;;;;;;;;;;;21.91;51.88;100851.59;7394795;19;1850;-42
2023/10/31 05:29:37;;;;;;;;;;;;;;;21.99;51.84;100837.38;7396706;19;1266;-42
2023/10/31 05:32:06;;;;;;;;;;;;;;;22.06;51.62;100849.19;7395386;19;1737;-42
2023/10/31 05:34:37;;;;;;;;;;;;;;;22.10;51.30;100829.03;7394570;19;1563;-42
2023/10/31 05:37:05;;;;;;;;;;;;;;;22.16;51.52;100841.03;7394257;19;1804;-42
2023/10/31 05:39:36;;;;;;;;;;;;;;;22.11;51.59;100833.44;7394639;19;1698;-42
2023/10/31 05:42:04;;;;;;;;;;;;;;;22.14;51.53;100840.34;7392304;19;1388;-42
2023/10/31 05:44:33;;;;;;;;;;;;;;;22.16;51.53;100833.84;7393765;19;1749;-42
2023/10/31 05:47:01;;;;;;;;;;;;;;;22.17;51.69;100843.59;7393375;19;1838;-42
2023/10/31 05:49:30;;;;;;;;;;;;;;;22.17;51.32;100824.72;7395200;19;1445;-42
2023/10/31 05:52:01;;;;;;;;;;;;;;;22.20;51.56;100840.59;7393668;19;1674;-42
2023/10/31 05:54:29;;;;;;;;;;;;;;;22.20;51.61;100840.59;7393544;19;1729;-42
2023/10/31 05:56:57;;;;;;;;;;;;;;;22.26;51.20;100832.91;7393927;19;1425;-42
2023/10/31 05:59:25;;;;;;;;;;;;;;;22.33;51.27;100839.38;7394278;19;1519;-42
2023/10/31 06:01:54;;;;;;;;;;;;;;;22.32;51.12;100843.94;7393155;19;1417;-42
2023/10/31 06:04:22;;;;;;;;;;;;;;;22.34;51.03;100850.00;7393348;19;1487;-42
2023/10/31 06:06:50;;;;;;;;;;;;;;;22.41;51.21;100852.91;7391874;19;1839;-42
2023/10/31 06:09:22;;;;;;;;;;;;;;;22.42;50.92;100846.50;7393941;19;1470;-42
2023/10/31 06:11:50;;;;;;;;;;;;;;;22.47;50.97;100849.59;7394075;19;1575;-42
2023/10/31 06:14:18;;;;;;;;;;;;;;;22.49;50.71;100847.59;7395190;19;1914;-42
2023/10/31 06:16:47;;;;;;;;;;;;;;;22.33;49.87;100842.06;7392520;19;1516;-42
2023/10/31 06:19:15;;;;;;;;;;;;;;;22.44;50.59;100839.13;7393785;19;1406;-42
2023/10/31 06:21:43;;;;;;;;;;;;;;;22.46;50.73;100830.88;7392958;19;1333;-42
2023/10/31 06:24:12;;;;;;;;;;;;;;;22.35;51.11;100830.13;7394433;19;1741;-42
2023/10/31 06:26:43;;;;;;;;;;;;;;;22.20;51.60;100834.34;7394345;19;1702;-42
2023/10/31 06:29:11;;;;;;;;;;;;;;;22.15;51.75;100826.75;7395279;19;1733;-42
2023/10/31 06:31:39;;;;;;;;;;;;;;;22.11;51.88;100830.75;7395138;19;1813;-42
2023/10/31 06:34:08;;;;;;;;;;;;;;;22.09;52.03;100832.75;7392237;19;1765;-42
2023/10/31 06:36:36;;;;;;;;;;;;;;;22.10;52.01;100829.03;7392471;19;1722;-42
2023/10/31 06:39:05;;;;;;;;;;;;;;;22.00;52.00;100829.16;7393967;19;1701;-42
2023/10/31 06:41:33;;;;;;;;;;;;;;;21.96;52.39;100838.50;7394155;19;1030;-42
2023/10/31 06:44:04;;;;;;;;;;;;;;;21.95;52.25;100822.53;7394211;19;1887;-42
2023/10/31 06:46:32;;;;;;;;;;;;;;;21.92;52.60;100836.28;7393631;19;1939;-42
2023/10/31 06:49:00;;;;;;;;;;;;;;;21.90;52.57;100851.75;7391782;19;1950;-42
2023/10/31 06:51:29;;;;;;;;;;;;;;;21.88;52.68;100829.50;7393219;19;1730;-42
2023/10/31 06:53:57;;;;;;;;;;;;;;;21.87;52.64;100827.84;7393002;19;1884;-42
2023/10/31 06:56:28;;;;;;;;;;;;;;;21.85;52.68;100818.03;7392230;19;1742;-42
2023/10/31 06:58:56;;;;;;;;;;;;;;;21.82;52.60;100829.09;7392548;19;1753;-42
2023/10/31 07:01:27;;;;;;;;;;;;;;;21.82;52.71;100828.25;7389958;19;1683;-42
2023/10/31 07:03:56;;;;;;;;;;;;;;;21.87;52.81;100849.38;7398522;19;1663;-42
2023/10/31 07:06:24;;;;;;;;;;;;;;;21.88;52.80;100842.97;7399550;19;1754;-42
2023/10/31 07:08:52;;;;;;;;;;;;;;;21.84;52.87;100827.13;7397801;19;1858;-42
2023/10/31 07:11:20;;;;;;;;;;;;;;;21.90;52.77;100825.66;7401890;19;1106;-42
2023/10/31 07:13:49;;;;;;;;;;;;;;;21.89;52.70;100825.84;7400526;19;1546;-42
2023/10/31 07:16:17;;;;;;;;;;;;;;;21.86;52.78;100821.56;7399327;19;1690;-42
2023/10/31 07:18:48;;;;;;;;;;;;;;;21.89;52.63;100825.84;7398596;19;1551;-42
2023/10/31 07:21:16;;;;;;;;;;;;;;;21.91;52.54;100834.59;7398109;19;1866;-42
2023/10/31 07:23:45;;;;;;;;;;;;;;;21.96;52.62;100843.03;7398443;19;1804;-42
2023/10/31 07:26:13;;;;;;;;;;;;;;;21.98;52.56;100835.66;7399368;19;1734;-42
2023/10/31 07:28:41;;;;;;;;;;;;;;;21.95;52.59;100814.44;7399520;19;1843;-42
2023/10/31 07:31:10;;;;;;;;;;;;;;;21.99;52.73;100848.13;7399334;19;1767;-42
2023/10/31 07:33:38;;;;;;;;;;;;;;;21.97;52.79;100815.97;7399910;19;1476;-43
2023/10/31 07:36:09;;;;;;;;;;;;;;;21.98;52.53;100819.50;7400596;19;1849;-43
2023/10/31 07:38:38;;;;;;;;;;;;;;;22.01;52.69;100828.13;7400036;19;1800;-43
2023/10/31 07:41:06;;;;;;;;;;;;;;;21.98;52.53;100819.50;7399878;19;1785;-42
2023/10/31 07:43:34;;;;;;;;;;;;;;;21.97;52.71;100807.06;7399163;19;1669;-42
2023/10/31 07:46:03;;;;;;;;;;;;;;;22.00;52.64;100817.50;7398718;19;1377;-42
2023/10/31 07:48:31;;;;;;;;;;;;;;;22.02;52.58;100791.25;7397516;19;1837;-43
2023/10/31 07:50:59;;;;;;;;;;;;;;;22.05;52.75;100794.50;7398085;19;1758;-42
2023/10/31 07:53:30;;;;;;;;;;;;;;;22.01;52.87;100793.13;7398963;19;1454;-42
2023/10/31 07:55:58;;;;;;;;;;;;;;;22.07;52.61;100791.66;7395715;19;2172;-43
2023/10/31 07:58:27;;;;;;;;;;;;;;;22.10;52.48;100785.94;7398374;19;1506;-42
2023/10/31 08:00:55;;;;;;;;;;;;;;;22.09;52.47;100780.75;7399586;19;1694;-42
2023/10/31 08:03:25;;;;;;;;;;;;;;;22.11;52.51;100776.88;7399722;19;1476;-42
2023/10/31 08:05:53;;;;;;;;;;;;;;;22.17;52.43;100773.56;7399756;19;1735;-42
2023/10/31 08:08:22;;;;;;;;;;;;;;;22.17;52.38;100760.09;7397265;19;1845;-42
2023/10/31 08:10:53;;;;;;;;;;;;;;;22.19;52.55;100759.94;7397500;19;1457;-42
2023/10/31 08:13:21;;;;;;;;;;;;;;;22.20;52.45;100758.94;7395314;19;1471;-42
2023/10/31 08:15:49;;;;;;;;;;;;;;;22.21;52.36;100739.09;7397023;19;1563;-42
2023/10/31 08:18:18;;;;;;;;;;;;;;;22.24;52.63;100742.34;7396496;19;1868;-43
2023/10/31 08:20:48;;;;;;;;;;;;;;;22.27;52.18;100743.03;7397707;19;1634;-42
2023/10/31 08:23:17;;;;;;;;;;;;;;;22.26;52.27;100738.63;7397935;19;1497;-43
2023/10/31 08:25:45;;;;;;;;;;;;;;;22.30;52.39;100729.22;7398683;19;1695;-42
2023/10/31 08:28:17;;;;;;;;;;;;;;;22.30;52.19;100713.91;7396735;19;1862;-42
2023/10/31 08:30:46;;;;;;;;;;;;;;;22.36;52.19;100716.00;7397829;19;1666;-43
2023/10/31 08:33:14;;;;;;;;;;;;;;;22.40;52.14;100709.28;7396453;19;1465;-44
2023/10/31 08:35:42;;;;;;;;;;;;;;;22.44;51.83;100696.31;7396483;19;1618;-43
2023/10/31 08:38:11;;;;;;;;;;;;;;;22.48;51.96;100697.69;7397114;19;1242;-42
2023/10/31 08:40:39;;;;;;;;;;;;;;;22.49;51.85;100690.47;7396983;19;1833;-43
2023/10/31 08:43:08;;;;;;;;;;;;;;;22.55;51.70;100687.13;7396010;19;1840;-42
2023/10/31 08:45:38;;;;;;;;;;;;;;;22.56;51.71;100700.44;7397719;19;1816;-43
2023/10/31 08:48:07;;;;;;;;;;;;;;;22.54;51.98;100683.59;7394614;19;1854;-43
2023/10/31 08:50:35;;;;;;;;;;;;;;;22.59;51.75;100689.31;7396257;19;1810;-43
2023/10/31 08:53:03;;;;;;;;;;;;;;;22.57;51.63;100680.56;7394804;19;1827;-43
2023/10/31 08:55:32;;;;;;;;;;;;;;;22.70;51.56;100688.22;7396451;19;1813;-43
2023/10/31 08:58:00;;;;;;;;;;;;;;;22.75;51.45;100666.97;7392747;19;1832;-43
2023/10/31 09:00:29;;;;;;;;;;;;;;;22.76;51.44;100662.44;7396876;19;1521;-43
2023/10/31 09:03:00;;;;;;;;;;;;;;;22.82;51.14;100661.81;7397051;19;1524;-43
2023/10/31 09:05:28;;;;;;;;;;;;;;;22.81;50.95;100654.72;7397612;19;1489;-42
2023/10/31 09:07:56;;;;;;;;;;;;;;;22.81;51.14;100638.53;7395997;19;1888;-42
2023/10/31 09:10:25;;;;;;;;;;;;;;;22.82;51.15;100622.19;7397729;19;1344;-42
2023/10/31 09:12:53;;;;;;;;;;;;;;;22.89;51.15;100616.97;7396691;19;1644;-43
2023/10/31 09:15:22;;;;;;;;;;;;;;;22.87;50.98;100597.44;7397785;19;1198;-42
2023/10/31 09:17:50;;;;;;;;;;;;;;;22.89;51.19;100608.88;7396183;19;1912;-42
2023/10/31 09:20:21;;;;;;;;;;;;;;;22.94;51.11;100594.91;7396028;19;1765;-42
2023/10/31 09:22:49;;;;;;;;;;;;;;;22.91;50.94;100593.38;7395906;19;1884;-42
2023/10/31 09:25:17;;;;;;;;;;;;;;;22.92;51.22;100583.44;7393652;19;1815;-43
2023/10/31 09:27:46;;;;;;;;;;;;;;;22.93;51.00;100588.69;7395512;19;1855;-42
2023/10/31 09:30:14;;;;;;;;;;;;;;;22.96;50.88;100585.66;7396641;19;1587;-43
2023/10/31 09:32:42;;;;;;;;;;;;;;;22.96;50.96;100591.06;7396529;19;1885;-42
2023/10/31 09:35:13;;;;;;;;;;;;;;;22.91;51.09;100577.22;7394243;19;1852;-42
2023/10/31 09:37:48;;;;;;;;;;;;;;;22.96;50.97;100572.19;7396273;19;1873;-42
2023/10/31 09:40:16;;;;;;;;;;;;;;;22.95;50.93;100566.94;7394908;19;1760;-42
2023/10/31 09:42:46;;;;;;;;;;;;;;;22.93;50.92;100555.47;7394722;19;1545;-43
2023/10/31 09:45:15;;;;;;;;;;;;;;;22.93;51.15;100567.09;7396167;19;1462;-43
2023/10/31 09:47:44;;;;;;;;;;;;;;;22.96;51.06;100565.91;7395693;19;1797;-42
2023/10/31 09:50:13;;;;;;;;;;;;;;;23.00;50.98;100551.97;7391456;19;1852;-42
2023/10/31 09:52:41;;;;;;;;;;;;;;;22.97;51.24;100573.00;7395084;19;1836;-42
2023/10/31 09:55:13;;;;;;;;;;;;;;;22.97;51.12;100535.25;7394915;19;1726;-42
2023/10/31 09:57:41;;;;;;;;;;;;;;;22.97;51.11;100521.78;7395206;19;1690;-42
2023/10/31 10:00:10;;;;;;;;;;;;;;;22.98;50.95;100536.97;7395462;19;1757;-42
2023/10/31 10:02:39;;;;;;;;;;;;;;;23.08;50.99;100531.41;7394259;19;1884;-42
2023/10/31 10:05:07;;;;;;;;;;;;;;;22.99;50.92;100517.88;7394118;19;1406;-42
2023/10/31 10:07:36;;;;;;;;;;;;;;;23.05;50.94;100520.97;7394492;19;1532;-43
2023/10/31 10:10:05;;;;;;;;;;;;;;;23.00;51.15;100514.19;7392865;19;1853;-42
2023/10/31 10:12:36;;;;;;;;;;;;;;;22.98;51.25;100510.81;7394563;19;1552;-42
2023/10/31 10:15:04;;;;;;;;;;;;;;;23.02;51.14;100512.22;7393485;19;1475;-42
2023/10/31 10:17:33;;;;;;;;;;;;;;;23.00;51.22;100497.19;7394143;19;1520;-42
2023/10/31 10:20:08;;;;;;;;;;;;;;;23.03;51.26;100500.41;7394494;19;1498;-42
2023/10/31 10:22:39;;;;;;;;;;;;;;;23.00;51.00;100489.94;7394642;19;1230;-43
2023/10/31 10:25:07;;;;;;;;;;;;;;;23.03;51.07;100505.78;7394134;19;1568;-43
2023/10/31 10:27:38;;;;;;;;;;;;;;;22.98;51.29;100483.88;7394256;19;1504;-42
2023/10/31 10:30:07;;;;;;;;;;;;;;;23.00;51.04;100492.63;7391669;19;1855;-42
2023/10/31 10:32:36;;;;;;;;;;;;;;;23.02;51.26;100487.94;7393228;19;1832;-42
2023/10/31 10:35:04;;;;;;;;;;;;;;;22.95;51.28;100483.34;7394497;19;1745;-42
2023/10/31 10:37:33;;;;;;;;;;;;;;;22.92;51.30;100478.28;7397149;19;1687;-42
2023/10/31 10:40:01;;;;;;;;;;;;;;;22.95;51.42;100480.66;7400930;19;1717;-42
2023/10/31 10:42:33;;;;;;;;;;;;;;;22.95;51.25;100470.69;7400804;19;1722;-42
2023/10/31 10:45:06;;;;;;;;;;;;;;;22.96;51.47;100467.00;7398524;19;1789;-42
2023/10/31 10:47:35;;;;;;;;;;;;;;;22.97;51.36;100449.81;7401719;19;1734;-42
2023/10/31 10:50:04;;;;;;;;;;;;;;;22.98;51.43;100456.91;7398552;19;1863;-42
2023/10/31 10:52:35;;;;;;;;;;;;;;;23.02;51.31;100439.41;7401557;19;1860;-42
2023/10/31 10:55:07;;;;;;;;;;;;;;;23.02;51.31;100452.88;7400891;19;1816;-42
2023/10/31 10:57:42;;;;;;;;;;;;;;;22.94;51.53;100443.91;7400917;19;2062;-43
2023/10/31 11:00:14;;;;;;;;;;;;;;;22.89;51.53;100430.09;7400285;19;1733;-42
2023/10/31 11:02:43;;;;;;;;;;;;;;;22.83;51.75;100431.63;7400864;19;1466;-43
2023/10/31 11:05:12;;;;;;;;;;;;;;;22.81;51.78;100441.72;7401353;19;1657;-42
2023/10/31 11:07:41;;;;;;;;;;;;;;;22.73;52.07;100425.56;7400339;19;1469;-42
2023/10/31 11:10:10;;;;;;;;;;;;;;;22.68;52.24;100420.69;7397275;19;1857;-42
2023/10/31 11:12:39;;;;;;;;;;;;;;;22.66;52.03;100414.63;7399856;19;1816;-43
2023/10/31 11:15:09;;;;;;;;;;;;;;;22.66;52.18;100424.53;7400387;19;1826;-42
2023/10/31 11:17:42;;;;;;;;;;;;;;;22.66;52.41;100408.34;7399540;19;1690;-42
2023/10/31 11:20:14;;;;;;;;;;;;;;;22.66;52.28;100400.28;7400277;19;1548;-42
2023/10/31 11:22:44;;;;;;;;;;;;;;;22.68;52.37;100384.78;7400127;19;1812;-42
2023/10/31 11:25:13;;;;;;;;;;;;;;;22.67;52.36;100381.25;7400985;19;1890;-42
2023/10/31 11:27:41;;;;;;;;;;;;;;;22.70;52.33;100382.75;7400962;19;1761;-42
2023/10/31 11:30:10;;;;;;;;;;;;;;;22.67;52.27;100364.25;7396392;19;1856;-42
2023/10/31 11:32:41;;;;;;;;;;;;;;;22.72;52.18;100375.34;7398911;19;1745;-43
2023/10/31 11:35:10;;;;;;;;;;;;;;;22.27;52.30;100304.81;7399232;19;1434;-42
2023/10/31 11:37:38;;;;;;;;;;;;;;;22.66;52.44;100376.03;7398631;19;1965;-42
2023/10/31 11:40:19;;;;;;;;;;;;;;;22.64;52.49;100371.66;7399735;19;1278;-42
2023/10/31 11:42:50;;;;;;;;;;;;;;;22.63;52.52;100369.94;7399296;19;1527;-42
2023/10/31 11:45:28;;;;;;;;;;;;;;;22.62;52.36;100370.97;7398805;19;1834;-43
2023/10/31 11:47:59;;;;;;;;;;;;;;;22.61;52.57;100347.72;7398023;19;1725;-42
2023/10/31 11:50:28;;;;;;;;;;;;;;;22.64;52.60;100352.78;7396464;19;1841;-42
2023/10/31 11:53:04;;;;;;;;;;;;;;;22.64;52.43;100347.41;7399505;19;1765;-42
2023/10/31 11:55:33;;;;;;;;;;;;;;;22.63;52.34;100350.25;7398529;19;1825;-42
2023/10/31 11:58:02;;;;;;;;;;;;;;;22.68;52.50;100352.44;7399151;19;1713;-42
2023/10/31 12:00:30;;;;;;;;;;;;;;;22.66;52.46;100351.75;7399262;19;1710;-42
2023/10/31 12:03:05;;;;;;;;;;;;;;;22.63;52.69;100339.47;7399059;19;1447;-42
2023/10/31 12:05:33;;;;;;;;;;;;;;;22.61;52.71;100331.56;7397545;19;1484;-42
2023/10/31 12:08:01;;;;;;;;;;;;;;;22.61;52.74;100333.41;7398367;19;1429;-42
2023/10/31 12:10:31;;;;;;;;;;;;;;;22.53;52.93;100322.66;7396189;19;1909;-43
2023/10/31 12:13:00;;;;;;;;;;;;;;;22.49;53.14;100330.22;7398022;19;1464;-43
2023/10/31 12:15:29;;;;;;;;;;;;;;;22.46;52.96;100321.63;7399427;19;1230;-42
2023/10/31 12:18:00;;;;;;;;;;;;;;;22.43;53.04;100320.13;7397816;19;1477;-43
2023/10/31 12:20:32;;;;;;;;;;;;;;;22.46;53.06;100316.25;7397804;19;1785;-42
2023/10/31 12:23:04;;;;;;;;;;;;;;;22.48;53.21;100315.06;7398226;19;1436;-42
2023/10/31 12:25:35;;;;;;;;;;;;;;;22.48;53.13;100315.06;7398003;19;1532;-42
2023/10/31 12:28:03;;;;;;;;;;;;;;;22.45;53.19;100315.41;7398422;19;1434;-42
2023/10/31 12:30:31;;;;;;;;;;;;;;;22.46;53.13;100311.69;7395404;19;1872;-42
2023/10/31 12:33:01;;;;;;;;;;;;;;;22.46;53.02;100317.06;7397141;19;1836;-42
2023/10/31 12:35:32;;;;;;;;;;;;;;;22.43;53.28;100301.25;7396641;19;1786;-42
2023/10/31 12:38:01;;;;;;;;;;;;;;;22.42;53.17;100311.22;7397584;19;1949;-43
2023/10/31 12:40:29;;;;;;;;;;;;;;;22.42;53.25;100295.03;7396969;19;1765;-42
2023/10/31 12:42:58;;;;;;;;;;;;;;;22.38;53.45;100292.84;7397223;19;1841;-42
2023/10/31 12:45:27;;;;;;;;;;;;;;;22.38;53.37;100299.09;7395510;19;1761;-43
2023/10/31 12:48:05;;;;;;;;;;;;;;;22.40;53.47;100299.75;7396724;19;1800;-42
2023/10/31 12:50:37;;;;;;;;;;;;;;;22.39;53.28;100289.13;7396417;19;1854;-42
2023/10/31 12:53:06;;;;;;;;;;;;;;;22.35;53.47;100290.50;7397207;19;1674;-42
2023/10/31 12:55:45;;;;;;;;;;;;;;;22.34;53.56;100286.09;7396730;19;1734;-42
2023/10/31 12:58:23;;;;;;;;;;;;;;;22.37;53.45;100293.84;7396162;19;1812;-42